sensor_id;sensor_type;location;lat;lon;timestamp;pressure;altitude;pressure_sealevel;temperature;humidity
34065;BME280;20339;49.754;20.158;2023-05-19T00:01:27;97505.27;;;7.46;100.00
34065;BME280;20339;49.754;20.158;2023-05-19T00:03:59;97503.31;;;7.44;100.00
34065;BME280;20339;49.754;20.158;2023-05-19T00:06:32;97506.86;;;7.41;100.00
34065;BME280;20339;49.754;20.158;2023-05-19T00:09:06;97506.67;;;7.43;100.00
34065;BME280;20339;49.754;20.158;2023-05-19T00:11:38;97507.42;;;7.43;100.00
34065;BME280;20339;49.754;20.158;2023-05-19T00:14:10;97507.05;;;7.43;100.00
34065;BME280;20339;49.754;20.158;2023-05-19T00:16:42;97508.73;;;7.43;100.00
34065;BME280;20339;49.754;20.158;2023-05-19T00:19:13;97505.45;;;7.42;100.00
34065;BME280;20339;49.754;20.158;2023-05-19T00:21:45;97502.24;;;7.43;100.00
34065;BME280;20339;49.754;20.158;2023-05-19T00:24:16;97495.70;;;7.43;100.00
34065;BME280;20339;49.754;20.158;2023-05-19T00:26:47;97489.48;;;7.43;100.00
34065;BME280;20339;49.754;20.158;2023-05-19T00:29:17;97492.20;;;7.45;100.00
34065;BME280;20339;49.754;20.158;2023-05-19T00:31:48;97492.65;;;7.46;100.00
34065;BME280;20339;49.754;20.158;2023-05-19T00:34:19;97495.77;;;7.46;100.00
34065;BME280;20339;49.754;20.158;2023-05-19T00:36:50;97501.38;;;7.41;100.00
34065;BME280;20339;49.754;20.158;2023-05-19T00:39:21;97503.55;;;7.39;100.00
34065;BME280;20339;49.754;20.158;2023-05-19T00:41:52;97501.98;;;7.40;100.00
34065;BME280;20339;49.754;20.158;2023-05-19T00:44:23;97497.39;;;7.40;100.00
34065;BME280;20339;49.754;20.158;2023-05-19T00:46:54;97499.14;;;7.40;100.00
34065;BME280;20339;49.754;20.158;2023-05-19T00:49:24;97497.30;;;7.40;100.00
34065;BME280;20339;49.754;20.158;2023-05-19T00:51:56;97493.98;;;7.41;100.00
34065;BME280;20339;49.754;20.158;2023-05-19T00:54:27;97491.80;;;7.43;100.00
34065;BME280;20339;49.754;20.158;2023-05-19T00:56:59;97488.40;;;7.44;100.00
34065;BME280;20339;49.754;20.158;2023-05-19T00:59:30;97488.62;;;7.47;100.00
34065;BME280;20339;49.754;20.158;2023-05-19T01:02:01;97485.58;;;7.48;100.00
34065;BME280;20339;49.754;20.158;2023-05-19T01:04:33;97481.40;;;7.50;100.00
34065;BME280;20339;49.754;20.158;2023-05-19T01:07:06;97481.55;;;7.51;100.00
34065;BME280;20339;49.754;20.158;2023-05-19T01:09:37;97478.55;;;7.51;100.00
34065;BME280;20339;49.754;20.158;2023-05-19T01:12:09;97480.27;;;7.50;100.00
34065;BME280;20339;49.754;20.158;2023-05-19T01:14:40;97483.89;;;7.48;100.00
34065;BME280;20339;49.754;20.158;2023-05-19T01:17:17;97483.50;;;7.44;100.00
34065;BME280;20339;49.754;20.158;2023-05-19T01:20:02;97489.58;;;7.43;100.00
34065;BME280;20339;49.754;20.158;2023-05-19T01:25:58;97484.66;;;7.39;100.00
34065;BME280;20339;49.754;20.158;2023-05-19T01:31:34;97484.45;;;7.38;100.00
34065;BME280;20339;49.754;20.158;2023-05-19T01:34:07;97487.02;;;7.34;100.00
34065;BME280;20339;49.754;20.158;2023-05-19T01:36:40;97486.66;;;7.31;100.00
34065;BME280;20339;49.754;20.158;2023-05-19T01:39:14;97488.45;;;7.27;100.00
34065;BME280;20339;49.754;20.158;2023-05-19T01:41:46;97492.60;;;7.24;100.00
34065;BME280;20339;49.754;20.158;2023-05-19T01:44:17;97488.65;;;7.21;100.00
34065;BME280;20339;49.754;20.158;2023-05-19T01:46:48;97488.13;;;7.21;100.00
34065;BME280;20339;49.754;20.158;2023-05-19T01:49:20;97485.41;;;7.22;100.00
34065;BME280;20339;49.754;20.158;2023-05-19T01:51:52;97477.52;;;7.23;100.00
34065;BME280;20339;49.754;20.158;2023-05-19T01:54:23;97476.84;;;7.21;100.00
34065;BME280;20339;49.754;20.158;2023-05-19T01:57:02;97477.96;;;7.22;100.00
34065;BME280;20339;49.754;20.158;2023-05-19T01:59:51;97476.98;;;7.22;100.00
34065;BME280;20339;49.754;20.158;2023-05-19T02:02:41;97475.77;;;7.23;100.00
34065;BME280;20339;49.754;20.158;2023-05-19T02:05:20;97474.34;;;7.20;100.00
34065;BME280;20339;49.754;20.158;2023-05-19T02:08:03;97470.31;;;7.17;100.00
34065;BME280;20339;49.754;20.158;2023-05-19T02:10:37;97469.42;;;7.18;100.00
34065;BME280;20339;49.754;20.158;2023-05-19T02:13:13;97467.92;;;7.21;100.00
34065;BME280;20339;49.754;20.158;2023-05-19T02:15:49;97469.23;;;7.23;100.00
34065;BME280;20339;49.754;20.158;2023-05-19T02:18:21;97467.40;;;7.24;100.00
34065;BME280;20339;49.754;20.158;2023-05-19T02:20:53;97470.98;;;7.21;100.00
34065;BME280;20339;49.754;20.158;2023-05-19T02:23:24;97466.58;;;7.18;100.00
34065;BME280;20339;49.754;20.158;2023-05-19T02:25:55;97466.11;;;7.17;100.00
34065;BME280;20339;49.754;20.158;2023-05-19T02:28:26;97467.55;;;7.15;100.00
34065;BME280;20339;49.754;20.158;2023-05-19T02:30:57;97465.90;;;7.15;100.00
34065;BME280;20339;49.754;20.158;2023-05-19T02:33:27;97468.21;;;7.11;100.00
34065;BME280;20339;49.754;20.158;2023-05-19T02:35:58;97466.23;;;7.09;100.00
34065;BME280;20339;49.754;20.158;2023-05-19T02:38:29;97464.05;;;7.11;100.00
34065;BME280;20339;49.754;20.158;2023-05-19T02:41:01;97461.44;;;7.13;100.00
34065;BME280;20339;49.754;20.158;2023-05-19T02:43:32;97460.44;;;7.12;100.00
34065;BME280;20339;49.754;20.158;2023-05-19T02:46:02;97460.28;;;7.16;100.00
34065;BME280;20339;49.754;20.158;2023-05-19T02:48:33;97460.17;;;7.18;100.00
34065;BME280;20339;49.754;20.158;2023-05-19T02:51:05;97455.29;;;7.22;100.00
34065;BME280;20339;49.754;20.158;2023-05-19T02:53:36;97457.42;;;7.23;100.00
34065;BME280;20339;49.754;20.158;2023-05-19T02:56:07;97458.30;;;7.22;100.00
34065;BME280;20339;49.754;20.158;2023-05-19T02:58:38;97459.04;;;7.22;100.00
34065;BME280;20339;49.754;20.158;2023-05-19T03:01:11;97457.77;;;7.23;100.00
34065;BME280;20339;49.754;20.158;2023-05-19T03:03:42;97462.71;;;7.21;100.00
34065;BME280;20339;49.754;20.158;2023-05-19T03:06:13;97463.70;;;7.20;100.00
34065;BME280;20339;49.754;20.158;2023-05-19T03:08:46;97463.17;;;7.21;100.00
34065;BME280;20339;49.754;20.158;2023-05-19T03:11:17;97461.52;;;7.22;100.00
34065;BME280;20339;49.754;20.158;2023-05-19T03:13:48;97462.58;;;7.23;100.00
34065;BME280;20339;49.754;20.158;2023-05-19T03:16:18;97459.73;;;7.23;100.00
34065;BME280;20339;49.754;20.158;2023-05-19T03:18:50;97458.67;;;7.26;100.00
34065;BME280;20339;49.754;20.158;2023-05-19T03:21:21;97457.97;;;7.28;100.00
34065;BME280;20339;49.754;20.158;2023-05-19T03:23:52;97458.58;;;7.30;100.00
34065;BME280;20339;49.754;20.158;2023-05-19T03:26:23;97458.13;;;7.28;100.00
34065;BME280;20339;49.754;20.158;2023-05-19T03:28:54;97461.02;;;7.27;100.00
34065;BME280;20339;49.754;20.158;2023-05-19T03:31:25;97461.08;;;7.28;100.00
34065;BME280;20339;49.754;20.158;2023-05-19T03:33:56;97466.41;;;7.31;100.00
34065;BME280;20339;49.754;20.158;2023-05-19T03:36:28;97467.27;;;7.31;100.00
34065;BME280;20339;49.754;20.158;2023-05-19T03:39:01;97464.29;;;7.32;100.00
34065;BME280;20339;49.754;20.158;2023-05-19T03:41:32;97466.13;;;7.34;100.00
34065;BME280;20339;49.754;20.158;2023-05-19T03:44:03;97462.17;;;7.35;100.00
34065;BME280;20339;49.754;20.158;2023-05-19T03:46:34;97463.86;;;7.35;100.00
34065;BME280;20339;49.754;20.158;2023-05-19T03:49:05;97468.86;;;7.34;100.00
34065;BME280;20339;49.754;20.158;2023-05-19T03:51:36;97466.63;;;7.33;100.00
34065;BME280;20339;49.754;20.158;2023-05-19T03:54:07;97465.58;;;7.33;100.00
34065;BME280;20339;49.754;20.158;2023-05-19T03:56:40;97466.47;;;7.37;100.00
34065;BME280;20339;49.754;20.158;2023-05-19T03:59:12;97462.98;;;7.40;100.00
34065;BME280;20339;49.754;20.158;2023-05-19T04:01:43;97460.92;;;7.42;100.00
34065;BME280;20339;49.754;20.158;2023-05-19T04:04:14;97460.77;;;7.45;100.00
34065;BME280;20339;49.754;20.158;2023-05-19T04:06:45;97463.96;;;7.49;100.00
34065;BME280;20339;49.754;20.158;2023-05-19T04:09:17;97464.09;;;7.51;100.00
34065;BME280;20339;49.754;20.158;2023-05-19T04:11:48;97465.23;;;7.53;100.00
34065;BME280;20339;49.754;20.158;2023-05-19T04:14:19;97466.91;;;7.55;100.00
34065;BME280;20339;49.754;20.158;2023-05-19T04:16:49;97471.19;;;7.59;100.00
34065;BME280;20339;49.754;20.158;2023-05-19T04:19:20;97469.36;;;7.62;100.00
34065;BME280;20339;49.754;20.158;2023-05-19T04:21:51;97470.84;;;7.66;100.00
34065;BME280;20339;49.754;20.158;2023-05-19T04:24:25;97472.92;;;7.67;100.00
34065;BME280;20339;49.754;20.158;2023-05-19T04:26:56;97474.98;;;7.67;100.00
34065;BME280;20339;49.754;20.158;2023-05-19T04:29:30;97478.61;;;7.70;100.00
34065;BME280;20339;49.754;20.158;2023-05-19T04:32:02;97474.31;;;7.74;100.00
34065;BME280;20339;49.754;20.158;2023-05-19T04:34:36;97478.69;;;7.77;100.00
34065;BME280;20339;49.754;20.158;2023-05-19T04:37:08;97479.03;;;7.79;100.00
34065;BME280;20339;49.754;20.158;2023-05-19T04:39:40;97475.89;;;7.80;100.00
34065;BME280;20339;49.754;20.158;2023-05-19T04:42:12;97469.98;;;7.84;100.00
34065;BME280;20339;49.754;20.158;2023-05-19T04:44:43;97467.95;;;7.89;100.00
34065;BME280;20339;49.754;20.158;2023-05-19T04:47:14;97472.17;;;7.93;100.00
34065;BME280;20339;49.754;20.158;2023-05-19T04:49:45;97473.83;;;7.96;100.00
34065;BME280;20339;49.754;20.158;2023-05-19T04:52:16;97472.54;;;7.99;100.00
34065;BME280;20339;49.754;20.158;2023-05-19T04:54:50;97472.24;;;8.01;100.00
34065;BME280;20339;49.754;20.158;2023-05-19T04:57:21;97471.63;;;8.04;100.00
34065;BME280;20339;49.754;20.158;2023-05-19T04:59:52;97470.86;;;8.10;100.00
34065;BME280;20339;49.754;20.158;2023-05-19T05:02:28;97472.89;;;8.15;100.00
34065;BME280;20339;49.754;20.158;2023-05-19T05:05:00;97467.43;;;8.19;100.00
34065;BME280;20339;49.754;20.158;2023-05-19T05:07:34;97466.38;;;8.24;100.00
34065;BME280;20339;49.754;20.158;2023-05-19T05:10:07;97469.95;;;8.26;100.00
34065;BME280;20339;49.754;20.158;2023-05-19T05:12:39;97473.23;;;8.29;100.00
34065;BME280;20339;49.754;20.158;2023-05-19T05:15:12;97469.34;;;8.30;100.00
34065;BME280;20339;49.754;20.158;2023-05-19T05:17:44;97471.20;;;8.31;100.00
34065;BME280;20339;49.754;20.158;2023-05-19T05:20:16;97472.22;;;8.32;100.00
34065;BME280;20339;49.754;20.158;2023-05-19T05:22:50;97471.48;;;8.35;100.00
34065;BME280;20339;49.754;20.158;2023-05-19T05:25:22;97473.38;;;8.38;100.00
34065;BME280;20339;49.754;20.158;2023-05-19T05:27:53;97475.33;;;8.42;100.00
34065;BME280;20339;49.754;20.158;2023-05-19T05:30:25;97473.50;;;8.46;100.00
34065;BME280;20339;49.754;20.158;2023-05-19T05:32:56;97476.52;;;8.47;100.00
34065;BME280;20339;49.754;20.158;2023-05-19T05:35:27;97474.53;;;8.48;100.00
34065;BME280;20339;49.754;20.158;2023-05-19T05:37:58;97475.64;;;8.52;100.00
34065;BME280;20339;49.754;20.158;2023-05-19T05:40:30;97477.64;;;8.56;100.00
34065;BME280;20339;49.754;20.158;2023-05-19T05:43:01;97478.48;;;8.59;100.00
34065;BME280;20339;49.754;20.158;2023-05-19T05:45:32;97481.19;;;8.59;100.00
34065;BME280;20339;49.754;20.158;2023-05-19T05:48:04;97486.22;;;8.60;100.00
34065;BME280;20339;49.754;20.158;2023-05-19T05:50:36;97487.93;;;8.61;100.00
34065;BME280;20339;49.754;20.158;2023-05-19T05:53:08;97490.77;;;8.57;100.00
34065;BME280;20339;49.754;20.158;2023-05-19T05:55:40;97490.05;;;8.54;100.00
34065;BME280;20339;49.754;20.158;2023-05-19T05:58:11;97487.65;;;8.57;100.00
34065;BME280;20339;49.754;20.158;2023-05-19T06:00:43;97488.04;;;8.58;100.00
34065;BME280;20339;49.754;20.158;2023-05-19T06:03:17;97491.05;;;8.56;100.00
34065;BME280;20339;49.754;20.158;2023-05-19T06:05:50;97491.63;;;8.58;100.00
34065;BME280;20339;49.754;20.158;2023-05-19T06:08:21;97491.38;;;8.61;100.00
34065;BME280;20339;49.754;20.158;2023-05-19T06:10:52;97495.17;;;8.61;100.00
34065;BME280;20339;49.754;20.158;2023-05-19T06:13:23;97497.33;;;8.65;100.00
34065;BME280;20339;49.754;20.158;2023-05-19T06:15:54;97499.50;;;8.70;100.00
34065;BME280;20339;49.754;20.158;2023-05-19T06:18:25;97500.84;;;8.78;100.00
34065;BME280;20339;49.754;20.158;2023-05-19T06:20:56;97503.63;;;8.88;100.00
34065;BME280;20339;49.754;20.158;2023-05-19T06:23:28;97505.99;;;8.97;100.00
34065;BME280;20339;49.754;20.158;2023-05-19T06:25:59;97507.42;;;9.05;100.00
34065;BME280;20339;49.754;20.158;2023-05-19T06:28:30;97506.88;;;9.08;100.00
34065;BME280;20339;49.754;20.158;2023-05-19T06:31:01;97507.76;;;9.02;100.00
34065;BME280;20339;49.754;20.158;2023-05-19T06:33:32;97504.15;;;8.99;100.00
34065;BME280;20339;49.754;20.158;2023-05-19T06:36:03;97511.29;;;9.05;100.00
34065;BME280;20339;49.754;20.158;2023-05-19T06:38:34;97511.27;;;9.09;100.00
34065;BME280;20339;49.754;20.158;2023-05-19T06:41:05;97515.94;;;9.10;100.00
34065;BME280;20339;49.754;20.158;2023-05-19T06:43:36;97516.75;;;9.11;100.00
34065;BME280;20339;49.754;20.158;2023-05-19T06:46:07;97513.91;;;9.13;100.00
34065;BME280;20339;49.754;20.158;2023-05-19T06:48:39;97514.13;;;9.10;100.00
34065;BME280;20339;49.754;20.158;2023-05-19T06:51:10;97513.02;;;9.03;100.00
34065;BME280;20339;49.754;20.158;2023-05-19T06:53:41;97513.27;;;9.03;100.00
34065;BME280;20339;49.754;20.158;2023-05-19T06:56:12;97514.85;;;9.02;100.00
34065;BME280;20339;49.754;20.158;2023-05-19T06:58:43;97515.71;;;9.03;100.00
34065;BME280;20339;49.754;20.158;2023-05-19T07:01:14;97519.68;;;9.13;100.00
34065;BME280;20339;49.754;20.158;2023-05-19T07:03:45;97517.55;;;9.15;100.00
34065;BME280;20339;49.754;20.158;2023-05-19T07:06:16;97514.98;;;9.13;100.00
34065;BME280;20339;49.754;20.158;2023-05-19T07:08:47;97516.38;;;9.20;100.00
34065;BME280;20339;49.754;20.158;2023-05-19T07:11:18;97517.34;;;9.26;100.00
34065;BME280;20339;49.754;20.158;2023-05-19T07:13:50;97518.55;;;9.25;100.00
34065;BME280;20339;49.754;20.158;2023-05-19T07:16:20;97522.73;;;9.24;100.00
34065;BME280;20339;49.754;20.158;2023-05-19T07:18:51;97515.77;;;9.16;100.00
34065;BME280;20339;49.754;20.158;2023-05-19T07:21:22;97516.38;;;9.11;100.00
34065;BME280;20339;49.754;20.158;2023-05-19T07:23:53;97513.70;;;9.04;100.00
34065;BME280;20339;49.754;20.158;2023-05-19T07:26:24;97520.26;;;9.03;100.00
34065;BME280;20339;49.754;20.158;2023-05-19T07:28:55;97516.98;;;9.09;100.00
34065;BME280;20339;49.754;20.158;2023-05-19T07:31:26;97517.81;;;9.13;100.00
34065;BME280;20339;49.754;20.158;2023-05-19T07:33:58;97516.98;;;9.17;100.00
34065;BME280;20339;49.754;20.158;2023-05-19T07:36:29;97515.77;;;9.17;100.00
34065;BME280;20339;49.754;20.158;2023-05-19T07:39:00;97513.39;;;9.13;100.00
34065;BME280;20339;49.754;20.158;2023-05-19T07:41:31;97512.41;;;9.19;100.00
34065;BME280;20339;49.754;20.158;2023-05-19T07:44:02;97511.70;;;9.22;100.00
34065;BME280;20339;49.754;20.158;2023-05-19T07:46:36;97513.40;;;9.31;100.00
34065;BME280;20339;49.754;20.158;2023-05-19T07:49:07;97510.84;;;9.21;100.00
34065;BME280;20339;49.754;20.158;2023-05-19T07:51:37;97512.60;;;9.17;100.00
34065;BME280;20339;49.754;20.158;2023-05-19T07:54:10;97512.23;;;9.31;100.00
34065;BME280;20339;49.754;20.158;2023-05-19T07:56:41;97508.18;;;9.39;100.00
34065;BME280;20339;49.754;20.158;2023-05-19T07:59:11;97511.10;;;9.30;100.00
34065;BME280;20339;49.754;20.158;2023-05-19T08:01:42;97513.09;;;9.28;100.00
34065;BME280;20339;49.754;20.158;2023-05-19T08:04:14;97510.71;;;9.38;100.00
34065;BME280;20339;49.754;20.158;2023-05-19T08:06:45;97511.77;;;9.46;100.00
34065;BME280;20339;49.754;20.158;2023-05-19T08:09:16;97514.09;;;9.56;100.00
34065;BME280;20339;49.754;20.158;2023-05-19T08:11:47;97513.13;;;9.67;100.00
34065;BME280;20339;49.754;20.158;2023-05-19T08:14:18;97508.85;;;9.78;100.00
34065;BME280;20339;49.754;20.158;2023-05-19T08:16:51;97509.56;;;9.92;100.00
34065;BME280;20339;49.754;20.158;2023-05-19T08:19:22;97509.53;;;10.01;100.00
34065;BME280;20339;49.754;20.158;2023-05-19T08:21:53;97505.56;;;10.07;100.00
34065;BME280;20339;49.754;20.158;2023-05-19T08:24:24;97503.70;;;10.14;100.00
34065;BME280;20339;49.754;20.158;2023-05-19T08:26:57;97503.15;;;10.17;100.00
34065;BME280;20339;49.754;20.158;2023-05-19T08:29:29;97509.14;;;10.17;100.00
34065;BME280;20339;49.754;20.158;2023-05-19T08:32:00;97510.66;;;10.11;100.00
34065;BME280;20339;49.754;20.158;2023-05-19T08:34:31;97511.13;;;10.08;100.00
34065;BME280;20339;49.754;20.158;2023-05-19T08:37:02;97509.86;;;10.09;100.00
34065;BME280;20339;49.754;20.158;2023-05-19T08:39:33;97508.85;;;10.08;100.00
34065;BME280;20339;49.754;20.158;2023-05-19T08:42:05;97517.55;;;10.17;100.00
34065;BME280;20339;49.754;20.158;2023-05-19T08:44:38;97516.07;;;10.33;100.00
34065;BME280;20339;49.754;20.158;2023-05-19T08:47:11;97516.40;;;10.50;100.00
34065;BME280;20339;49.754;20.158;2023-05-19T08:49:46;97517.33;;;10.60;100.00
34065;BME280;20339;49.754;20.158;2023-05-19T08:52:26;97515.64;;;10.64;100.00
34065;BME280;20339;49.754;20.158;2023-05-19T08:55:06;97516.30;;;10.68;100.00
34065;BME280;20339;49.754;20.158;2023-05-19T08:57:40;97515.05;;;10.63;100.00
34065;BME280;20339;49.754;20.158;2023-05-19T09:00:13;97512.36;;;10.63;100.00
34065;BME280;20339;49.754;20.158;2023-05-19T09:02:46;97513.82;;;10.59;100.00
34065;BME280;20339;49.754;20.158;2023-05-19T09:05:19;97514.46;;;10.61;100.00
34065;BME280;20339;49.754;20.158;2023-05-19T09:07:50;97516.84;;;10.53;100.00
34065;BME280;20339;49.754;20.158;2023-05-19T09:10:21;97520.17;;;10.58;100.00
34065;BME280;20339;49.754;20.158;2023-05-19T09:12:52;97519.05;;;10.68;100.00
34065;BME280;20339;49.754;20.158;2023-05-19T09:15:26;97513.09;;;10.80;100.00
34065;BME280;20339;49.754;20.158;2023-05-19T09:18:11;97510.44;;;10.93;100.00
34065;BME280;20339;49.754;20.158;2023-05-19T09:20:44;97511.58;;;11.06;100.00
34065;BME280;20339;49.754;20.158;2023-05-19T09:23:16;97509.91;;;11.15;100.00
34065;BME280;20339;49.754;20.158;2023-05-19T09:25:51;97507.69;;;11.30;100.00
34065;BME280;20339;49.754;20.158;2023-05-19T09:28:27;97511.66;;;11.41;100.00
34065;BME280;20339;49.754;20.158;2023-05-19T09:31:03;97517.24;;;11.43;100.00
34065;BME280;20339;49.754;20.158;2023-05-19T09:33:37;97514.22;;;11.47;100.00
34065;BME280;20339;49.754;20.158;2023-05-19T09:36:08;97516.66;;;11.51;100.00
34065;BME280;20339;49.754;20.158;2023-05-19T09:38:40;97521.11;;;11.59;100.00
34065;BME280;20339;49.754;20.158;2023-05-19T09:41:14;97516.88;;;11.68;100.00
34065;BME280;20339;49.754;20.158;2023-05-19T09:43:54;97516.30;;;11.73;100.00
34065;BME280;20339;49.754;20.158;2023-05-19T09:46:26;97515.51;;;11.74;100.00
34065;BME280;20339;49.754;20.158;2023-05-19T09:48:59;97513.89;;;11.80;100.00
34065;BME280;20339;49.754;20.158;2023-05-19T09:51:29;97513.77;;;11.87;100.00
34065;BME280;20339;49.754;20.158;2023-05-19T09:54:01;97512.90;;;11.93;100.00
34065;BME280;20339;49.754;20.158;2023-05-19T09:56:34;97512.74;;;11.95;100.00
34065;BME280;20339;49.754;20.158;2023-05-19T09:59:05;97515.15;;;11.98;100.00
34065;BME280;20339;49.754;20.158;2023-05-19T10:01:36;97517.33;;;12.04;100.00
34065;BME280;20339;49.754;20.158;2023-05-19T10:04:13;97512.66;;;12.10;100.00
34065;BME280;20339;49.754;20.158;2023-05-19T10:06:44;97510.69;;;12.14;100.00
34065;BME280;20339;49.754;20.158;2023-05-19T10:09:16;97515.48;;;12.11;100.00
34065;BME280;20339;49.754;20.158;2023-05-19T10:11:47;97513.72;;;12.00;100.00
34065;BME280;20339;49.754;20.158;2023-05-19T10:14:19;97512.53;;;11.92;100.00
34065;BME280;20339;49.754;20.158;2023-05-19T10:16:53;97513.70;;;11.85;100.00
34065;BME280;20339;49.754;20.158;2023-05-19T10:19:26;97516.39;;;11.80;100.00
34065;BME280;20339;49.754;20.158;2023-05-19T10:21:57;97521.25;;;11.77;100.00
34065;BME280;20339;49.754;20.158;2023-05-19T10:24:28;97519.98;;;11.76;100.00
34065;BME280;20339;49.754;20.158;2023-05-19T10:27:01;97521.02;;;11.81;100.00
34065;BME280;20339;49.754;20.158;2023-05-19T10:29:35;97516.30;;;11.73;100.00
34065;BME280;20339;49.754;20.158;2023-05-19T10:32:09;97514.45;;;11.56;99.78
34065;BME280;20339;49.754;20.158;2023-05-19T10:34:59;97520.61;;;11.23;99.47
34065;BME280;20339;49.754;20.158;2023-05-19T10:37:43;97517.30;;;11.18;100.00
34065;BME280;20339;49.754;20.158;2023-05-19T10:40:23;97516.36;;;11.20;100.00
34065;BME280;20339;49.754;20.158;2023-05-19T10:43:04;97515.69;;;11.24;100.00
34065;BME280;20339;49.754;20.158;2023-05-19T10:45:43;97512.95;;;11.33;100.00
34065;BME280;20339;49.754;20.158;2023-05-19T10:48:16;97515.50;;;11.28;100.00
34065;BME280;20339;49.754;20.158;2023-05-19T10:50:51;97518.69;;;11.35;100.00
34065;BME280;20339;49.754;20.158;2023-05-19T10:53:31;97517.77;;;11.48;100.00
34065;BME280;20339;49.754;20.158;2023-05-19T10:56:01;97517.98;;;11.60;100.00
34065;BME280;20339;49.754;20.158;2023-05-19T10:58:47;97514.60;;;11.68;100.00
34065;BME280;20339;49.754;20.158;2023-05-19T11:01:19;97513.95;;;11.69;100.00
34065;BME280;20339;49.754;20.158;2023-05-19T11:03:54;97513.77;;;11.73;100.00
34065;BME280;20339;49.754;20.158;2023-05-19T11:06:29;97515.19;;;11.77;100.00
34065;BME280;20339;49.754;20.158;2023-05-19T11:09:11;97511.57;;;11.84;100.00
34065;BME280;20339;49.754;20.158;2023-05-19T11:11:47;97511.79;;;11.88;100.00
34065;BME280;20339;49.754;20.158;2023-05-19T11:14:21;97510.84;;;11.87;100.00
34065;BME280;20339;49.754;20.158;2023-05-19T11:16:55;97509.98;;;11.87;100.00
34065;BME280;20339;49.754;20.158;2023-05-19T11:19:30;97509.95;;;11.79;100.00
34065;BME280;20339;49.754;20.158;2023-05-19T11:22:10;97514.23;;;11.71;100.00
34065;BME280;20339;49.754;20.158;2023-05-19T11:24:44;97514.73;;;11.61;99.98
34065;BME280;20339;49.754;20.158;2023-05-19T11:27:28;97513.73;;;11.65;100.00
34065;BME280;20339;49.754;20.158;2023-05-19T11:30:09;97513.48;;;11.73;100.00
34065;BME280;20339;49.754;20.158;2023-05-19T11:32:46;97516.12;;;11.61;99.97
34065;BME280;20339;49.754;20.158;2023-05-19T11:35:18;97514.22;;;11.67;100.00
34065;BME280;20339;49.754;20.158;2023-05-19T11:37:50;97514.35;;;11.79;100.00
34065;BME280;20339;49.754;20.158;2023-05-19T11:40:23;97520.77;;;11.89;100.00
34065;BME280;20339;49.754;20.158;2023-05-19T11:42:55;97524.27;;;11.93;100.00
34065;BME280;20339;49.754;20.158;2023-05-19T11:45:26;97523.00;;;11.93;100.00
34065;BME280;20339;49.754;20.158;2023-05-19T11:47:58;97520.61;;;11.90;99.46
34065;BME280;20339;49.754;20.158;2023-05-19T11:50:31;97522.82;;;11.69;99.06
34065;BME280;20339;49.754;20.158;2023-05-19T11:53:02;97525.41;;;11.62;99.96
34065;BME280;20339;49.754;20.158;2023-05-19T11:55:33;97522.55;;;11.67;100.00
34065;BME280;20339;49.754;20.158;2023-05-19T11:58:04;97523.69;;;11.70;100.00
34065;BME280;20339;49.754;20.158;2023-05-19T12:00:39;97524.40;;;11.67;100.00
34065;BME280;20339;49.754;20.158;2023-05-19T12:03:10;97521.30;;;11.71;100.00
34065;BME280;20339;49.754;20.158;2023-05-19T12:05:44;97522.86;;;11.79;100.00
34065;BME280;20339;49.754;20.158;2023-05-19T12:08:16;97518.75;;;11.86;100.00
34065;BME280;20339;49.754;20.158;2023-05-19T12:10:50;97518.38;;;11.91;100.00
34065;BME280;20339;49.754;20.158;2023-05-19T12:13:23;97518.89;;;11.81;99.43
34065;BME280;20339;49.754;20.158;2023-05-19T12:15:59;97521.87;;;11.81;100.00
34065;BME280;20339;49.754;20.158;2023-05-19T12:18:35;97521.67;;;11.91;100.00
34065;BME280;20339;49.754;20.158;2023-05-19T12:21:06;97523.92;;;12.00;100.00
34065;BME280;20339;49.754;20.158;2023-05-19T12:23:37;97523.33;;;12.04;100.00
34065;BME280;20339;49.754;20.158;2023-05-19T12:26:08;97519.31;;;11.85;99.30
34065;BME280;20339;49.754;20.158;2023-05-19T12:31:11;97519.02;;;11.76;100.00
34065;BME280;20339;49.754;20.158;2023-05-19T12:33:41;97515.02;;;11.81;100.00
34065;BME280;20339;49.754;20.158;2023-05-19T12:36:12;97518.22;;;11.89;100.00
34065;BME280;20339;49.754;20.158;2023-05-19T12:38:45;97516.41;;;11.96;100.00
34065;BME280;20339;49.754;20.158;2023-05-19T12:41:17;97515.64;;;12.04;100.00
34065;BME280;20339;49.754;20.158;2023-05-19T12:43:48;97514.45;;;12.09;100.00
34065;BME280;20339;49.754;20.158;2023-05-19T12:46:20;97514.90;;;12.14;100.00
34065;BME280;20339;49.754;20.158;2023-05-19T12:48:51;97513.13;;;12.20;100.00
34065;BME280;20339;49.754;20.158;2023-05-19T12:51:22;97513.92;;;12.23;100.00
34065;BME280;20339;49.754;20.158;2023-05-19T12:53:54;97508.55;;;12.22;100.00
34065;BME280;20339;49.754;20.158;2023-05-19T12:56:25;97510.74;;;12.26;100.00
34065;BME280;20339;49.754;20.158;2023-05-19T12:58:58;97511.23;;;12.25;100.00
34065;BME280;20339;49.754;20.158;2023-05-19T13:01:31;97511.05;;;12.21;99.97
34065;BME280;20339;49.754;20.158;2023-05-19T13:04:02;97507.87;;;12.16;99.74
34065;BME280;20339;49.754;20.158;2023-05-19T13:06:33;97506.97;;;12.03;99.16
34065;BME280;20339;49.754;20.158;2023-05-19T13:09:04;97505.16;;;12.03;99.75
34065;BME280;20339;49.754;20.158;2023-05-19T13:11:35;97509.23;;;11.89;98.89
34065;BME280;20339;49.754;20.158;2023-05-19T13:14:07;97503.72;;;11.73;99.43
34065;BME280;20339;49.754;20.158;2023-05-19T13:16:38;97504.88;;;11.74;100.00
34065;BME280;20339;49.754;20.158;2023-05-19T13:19:09;97507.00;;;11.82;100.00
34065;BME280;20339;49.754;20.158;2023-05-19T13:21:43;97506.10;;;11.88;100.00
34065;BME280;20339;49.754;20.158;2023-05-19T13:24:16;97502.70;;;11.95;100.00